Disclaimer

Please do not use the information listed here in-flight or in-navigation, as they are not provided to us by the airports but are provided by volunteers, so they might be outdated.

Search


Regions


Airport information page

Radio informations:
Tower (TWR) - 123.7 MHz
Automatic Terminal Information Service (ATIS) - 129.6 MHz
ISLAMABAD APP - 124.9 MHz

Airport informations:
Latitude: 33° 36' 59.95" N
Longitude: 073° 05' 57.24" E
Elevation: 1668 feet - 508 meters
Operating hours: N/A
Operating agency: Military-civil joint use airport
Timezone: UTC+5
Fuel: Jet A1, without icing nhibitor.

Runway information:
12/30 - 10785 x 150 feet< - >3287 x 46 meters

Recent METARs:
OPRN 210000Z 00000KT CAVOK 11/08 Q1019 NOSIG RMK A3009
OPRN 210100Z 00000KT CAVOK 10/07 Q1019 NOSIG RMK A3009
OPRN 210100Z 00000KT CAVOK 10/07 Q1019 NOSIG RMK A3009

Airport on the map: